createdAt,value
2023-03-19T00:02:17.657Z,49.80
2023-03-19T00:04:46.699Z,49.80
2023-03-19T00:07:15.787Z,49.70
2023-03-19T00:09:44.046Z,49.80
2023-03-19T00:12:13.103Z,49.80
2023-03-19T00:14:41.277Z,49.90
2023-03-19T00:17:11.651Z,50.00
2023-03-19T00:19:39.756Z,50.00
2023-03-19T00:22:08.538Z,49.90
2023-03-19T00:24:36.605Z,49.80
2023-03-19T00:27:04.783Z,49.80
2023-03-19T00:29:32.961Z,49.80
2023-03-19T00:32:01.241Z,49.90
2023-03-19T00:34:30.670Z,49.90
2023-03-19T00:36:58.823Z,50.10
2023-03-19T00:39:26.907Z,50.10
2023-03-19T00:41:54.936Z,50.10
2023-03-19T00:44:22.988Z,50.00
2023-03-19T00:46:51.697Z,50.10
2023-03-19T00:49:19.748Z,50.20
2023-03-19T00:51:49.146Z,50.20
2023-03-19T00:54:17.920Z,50.30
2023-03-19T00:56:45.965Z,50.90
2023-03-19T00:59:13.994Z,50.50
2023-03-19T01:01:42.113Z,50.40
2023-03-19T01:04:11.171Z,50.50
2023-03-19T01:06:39.294Z,50.60
2023-03-19T01:09:08.715Z,50.70
2023-03-19T01:11:36.873Z,50.70
2023-03-19T01:14:04.958Z,50.70
2023-03-19T01:16:34.352Z,50.70
2023-03-19T01:19:02.506Z,50.70
2023-03-19T01:21:31.159Z,50.80
2023-03-19T01:23:59.669Z,50.80
2023-03-19T01:26:29.075Z,50.80
2023-03-19T01:28:58.737Z,50.80
2023-03-19T01:31:27.152Z,50.80
2023-03-19T01:33:55.807Z,50.80
2023-03-19T01:36:23.889Z,50.70
2023-03-19T01:38:51.991Z,50.80
2023-03-19T01:41:20.114Z,50.80
2023-03-19T01:43:49.514Z,50.80
2023-03-19T01:46:25.924Z,50.90
2023-03-19T01:48:57.373Z,51.00
2023-03-19T01:51:28.782Z,50.90
2023-03-19T01:54:00.886Z,50.90
2023-03-19T01:56:33.287Z,50.90
2023-03-19T01:59:07.808Z,50.90
2023-03-19T02:01:39.240Z,50.90
2023-03-19T02:04:08.294Z,50.90
2023-03-19T02:06:37.767Z,51.60
2023-03-19T02:09:06.265Z,51.00
2023-03-19T02:11:34.786Z,51.70
2023-03-19T02:14:04.646Z,51.10
2023-03-19T02:16:32.781Z,51.20
2023-03-19T02:19:01.469Z,51.30
2023-03-19T02:21:30.023Z,51.20
2023-03-19T02:24:04.708Z,51.40
2023-03-19T02:26:34.555Z,51.50
2023-03-19T02:29:04.118Z,51.40
2023-03-19T02:31:32.495Z,51.50
2023-03-19T02:34:02.573Z,51.40
2023-03-19T02:36:34.810Z,51.50
2023-03-19T02:39:05.445Z,51.50
2023-03-19T02:41:38.518Z,51.50
2023-03-19T02:44:07.451Z,51.50
2023-03-19T02:46:36.735Z,51.50
2023-03-19T02:49:05.381Z,51.60
2023-03-19T02:51:33.467Z,51.70
2023-03-19T02:54:01.473Z,51.70
2023-03-19T02:56:29.608Z,51.80
2023-03-19T02:58:59.049Z,51.80
2023-03-19T03:01:27.144Z,51.90
2023-03-19T03:03:55.514Z,51.90
2023-03-19T03:06:23.535Z,51.90
2023-03-19T03:08:52.136Z,52.00
2023-03-19T03:11:20.212Z,52.00
2023-03-19T03:13:48.229Z,52.00
2023-03-19T03:16:17.666Z,52.10
2023-03-19T03:18:45.816Z,52.10
2023-03-19T03:21:13.880Z,52.10
2023-03-19T03:23:42.088Z,52.20
2023-03-19T03:26:10.129Z,52.20
2023-03-19T03:28:38.226Z,52.20
2023-03-19T03:31:06.438Z,52.30
2023-03-19T03:33:36.365Z,52.30
2023-03-19T03:36:04.633Z,52.30
2023-03-19T03:38:32.927Z,52.40
2023-03-19T03:41:00.943Z,52.30
2023-03-19T03:43:29.050Z,52.30
2023-03-19T03:45:57.600Z,52.40
2023-03-19T03:48:26.032Z,52.40
2023-03-19T03:50:55.537Z,52.50
2023-03-19T03:53:23.558Z,52.60
2023-03-19T03:55:51.634Z,52.60
2023-03-19T03:58:19.883Z,52.70
2023-03-19T04:00:48.443Z,52.70
2023-03-19T04:03:17.475Z,52.80
2023-03-19T04:05:45.831Z,52.80
2023-03-19T04:08:15.903Z,52.80
2023-03-19T04:10:44.767Z,52.80
2023-03-19T04:13:13.791Z,52.80
2023-03-19T04:15:43.509Z,52.80
2023-03-19T04:18:11.831Z,52.90
2023-03-19T04:20:41.182Z,53.00
2023-03-19T04:23:09.202Z,53.00
2023-03-19T04:25:41.177Z,53.00
2023-03-19T04:28:09.484Z,53.10
2023-03-19T04:30:37.984Z,53.10
2023-03-19T04:33:06.980Z,53.10
2023-03-19T04:35:35.780Z,53.20
2023-03-19T04:38:04.103Z,53.30
2023-03-19T04:40:32.326Z,53.30
2023-03-19T04:43:01.836Z,53.40
2023-03-19T04:45:29.929Z,53.40
2023-03-19T04:47:58.215Z,53.40
2023-03-19T04:50:26.239Z,53.40
2023-03-19T04:52:54.657Z,53.50
2023-03-19T04:55:23.600Z,53.60
2023-03-19T04:57:52.088Z,53.60
2023-03-19T05:00:22.232Z,53.70
2023-03-19T05:02:50.265Z,53.70
2023-03-19T05:05:18.845Z,53.70
2023-03-19T05:07:47.441Z,53.70
2023-03-19T05:10:15.557Z,54.50
2023-03-19T05:12:43.626Z,54.60
2023-03-19T05:15:12.626Z,54.70
2023-03-19T05:17:42.852Z,54.80
2023-03-19T05:20:12.846Z,54.80
2023-03-19T05:22:41.437Z,54.80
2023-03-19T05:25:09.815Z,54.80
2023-03-19T05:27:37.884Z,54.90
2023-03-19T05:30:07.236Z,54.10
2023-03-19T05:32:35.496Z,54.70
2023-03-19T05:35:05.629Z,54.10
2023-03-19T05:37:33.923Z,54.20
2023-03-19T05:40:02.033Z,54.20
2023-03-19T05:42:30.054Z,54.20
2023-03-19T05:44:58.134Z,54.20
2023-03-19T05:47:27.069Z,54.20
2023-03-19T05:49:55.100Z,54.30
2023-03-19T05:52:24.703Z,54.30
2023-03-19T05:54:52.790Z,54.40
2023-03-19T05:57:21.296Z,54.40
2023-03-19T05:59:49.326Z,54.40
2023-03-19T06:02:17.511Z,54.40
2023-03-19T06:04:45.953Z,54.50
2023-03-19T06:07:14.006Z,54.60
2023-03-19T06:09:43.551Z,54.70
2023-03-19T06:12:11.942Z,54.70
2023-03-19T06:14:39.976Z,54.70
2023-03-19T06:17:09.311Z,54.70
2023-03-19T06:19:37.384Z,54.90
2023-03-19T06:22:05.447Z,54.90
2023-03-19T06:24:33.815Z,54.40
2023-03-19T06:27:03.235Z,54.90
2023-03-19T06:29:31.267Z,54.90
2023-03-19T06:31:59.339Z,54.90
2023-03-19T06:34:27.656Z,55.00
2023-03-19T06:36:55.718Z,54.90
2023-03-19T06:39:23.933Z,54.90
2023-03-19T06:41:52.340Z,55.00
2023-03-19T06:44:21.758Z,55.10
2023-03-19T06:46:49.787Z,55.00
2023-03-19T06:49:18.076Z,55.00
2023-03-19T06:51:46.193Z,55.00
2023-03-19T06:54:14.242Z,55.00
2023-03-19T06:56:42.295Z,54.90
2023-03-19T06:59:13.107Z,54.80
2023-03-19T07:01:43.204Z,54.80
2023-03-19T07:04:11.961Z,54.70
2023-03-19T07:06:40.059Z,54.70
2023-03-19T07:09:08.260Z,54.60
2023-03-19T07:11:36.825Z,54.50
2023-03-19T07:14:05.226Z,54.60
2023-03-19T07:16:33.467Z,54.50
2023-03-19T07:19:02.913Z,54.50
2023-03-19T07:21:31.034Z,54.40
2023-03-19T07:23:59.069Z,54.40
2023-03-19T07:26:27.705Z,54.30
2023-03-19T07:28:55.746Z,54.20
2023-03-19T07:31:23.865Z,54.20
2023-03-19T07:33:51.915Z,54.00
2023-03-19T07:36:21.908Z,54.50
2023-03-19T07:38:49.979Z,53.80
2023-03-19T07:41:18.108Z,53.80
2023-03-19T07:43:46.155Z,53.70
2023-03-19T07:46:14.439Z,53.60
2023-03-19T07:48:42.551Z,53.50
2023-03-19T07:51:10.563Z,53.50
2023-03-19T07:53:39.967Z,53.50
2023-03-19T07:56:08.737Z,53.50
2023-03-19T07:58:36.816Z,53.50
2023-03-19T08:01:05.307Z,53.40
2023-03-19T08:03:33.758Z,53.40
2023-03-19T08:06:02.471Z,53.40
2023-03-19T08:08:30.584Z,53.40
2023-03-19T08:10:59.951Z,53.30
2023-03-19T08:13:28.297Z,53.10
2023-03-19T08:15:56.513Z,53.00
2023-03-19T08:18:24.851Z,53.00
2023-03-19T08:20:52.890Z,52.80
2023-03-19T08:23:20.944Z,52.80
2023-03-19T08:25:51.728Z,52.70
2023-03-19T08:28:21.793Z,52.60
2023-03-19T08:33:18.545Z,51.90
2023-03-19T08:35:46.696Z,52.20
2023-03-19T08:38:14.842Z,52.10
2023-03-19T08:40:42.873Z,52.10
2023-03-19T08:43:11.010Z,51.90
2023-03-19T08:45:40.426Z,51.70
2023-03-19T08:48:08.512Z,51.60
2023-03-19T08:50:36.980Z,51.60
2023-03-19T08:53:05.031Z,51.50
2023-03-19T08:55:33.064Z,51.20
2023-03-19T08:58:01.104Z,51.10
2023-03-19T09:00:29.193Z,50.90
2023-03-19T09:02:58.614Z,50.90
2023-03-19T09:05:29.281Z,50.60
2023-03-19T09:07:57.750Z,50.50
2023-03-19T09:10:25.833Z,50.30
2023-03-19T09:12:53.923Z,50.30
2023-03-19T09:15:21.987Z,50.20
2023-03-19T09:17:50.399Z,50.00
2023-03-19T09:20:20.140Z,49.80
2023-03-19T09:22:48.239Z,49.60
2023-03-19T09:25:16.473Z,49.50
2023-03-19T09:27:44.513Z,49.40
2023-03-19T09:30:14.057Z,49.30
2023-03-19T09:32:42.148Z,49.10
2023-03-19T09:35:11.009Z,48.90
2023-03-19T09:37:40.534Z,48.70
2023-03-19T09:40:17.389Z,48.50
2023-03-19T09:42:57.731Z,48.50
2023-03-19T09:45:28.581Z,48.40
2023-03-19T09:48:04.263Z,48.30
2023-03-19T09:50:34.731Z,48.20
2023-03-19T09:53:09.568Z,48.00
2023-03-19T09:55:44.377Z,47.80
2023-03-19T09:58:16.675Z,47.70
2023-03-19T10:00:48.157Z,47.70
2023-03-19T10:03:30.998Z,47.50
2023-03-19T10:06:09.452Z,47.20
2023-03-19T10:08:51.598Z,47.20
2023-03-19T10:11:34.306Z,47.20
2023-03-19T10:14:18.271Z,47.10
2023-03-19T10:16:50.129Z,47.10
2023-03-19T10:19:23.695Z,47.20
2023-03-19T10:21:57.086Z,47.70
2023-03-19T10:24:31.424Z,47.20
2023-03-19T10:27:02.910Z,47.00
2023-03-19T10:29:30.959Z,46.90
2023-03-19T10:32:08.557Z,46.70
2023-03-19T10:34:38.055Z,46.70
2023-03-19T10:37:08.171Z,46.80
2023-03-19T10:39:39.991Z,46.80
2023-03-19T10:42:20.030Z,46.70
2023-03-19T10:44:51.813Z,46.40
2023-03-19T10:47:22.685Z,46.40
2023-03-19T10:49:51.888Z,46.50
2023-03-19T10:52:24.092Z,46.50
2023-03-19T10:54:57.069Z,46.60
2023-03-19T10:57:28.714Z,46.50
2023-03-19T10:59:56.984Z,46.40
2023-03-19T11:02:31.112Z,46.40
2023-03-19T11:05:20.164Z,46.20
2023-03-19T11:07:51.235Z,46.20
2023-03-19T11:10:21.929Z,46.10
2023-03-19T11:12:56.352Z,46.10
2023-03-19T11:15:29.068Z,46.00
2023-03-19T11:17:59.431Z,46.00
2023-03-19T11:20:31.962Z,45.80
2023-03-19T11:23:02.799Z,45.60
2023-03-19T11:25:37.429Z,45.40
2023-03-19T11:28:09.813Z,45.40
2023-03-19T11:30:50.050Z,45.20
2023-03-19T11:33:41.878Z,44.90
2023-03-19T11:36:14.505Z,44.80
2023-03-19T11:38:54.805Z,45.00
2023-03-19T11:41:35.671Z,44.90
2023-03-19T11:44:10.638Z,44.70
2023-03-19T11:46:44.439Z,44.70
2023-03-19T11:49:43.501Z,44.80
2023-03-19T11:52:19.474Z,44.90
2023-03-19T11:55:04.239Z,44.90
2023-03-19T11:57:48.903Z,45.10
2023-03-19T12:00:29.669Z,45.20
2023-03-19T12:03:28.387Z,45.40
2023-03-19T12:06:00.293Z,45.40
2023-03-19T12:08:37.366Z,45.40
2023-03-19T12:11:17.554Z,45.30
2023-03-19T12:14:19.005Z,45.20
2023-03-19T12:17:09.729Z,45.20
2023-03-19T12:20:16.105Z,45.30
2023-03-19T12:22:59.674Z,45.40
2023-03-19T12:25:38.923Z,45.50
2023-03-19T12:28:16.261Z,45.60
2023-03-19T12:30:50.629Z,45.70
2023-03-19T12:33:34.686Z,45.80
2023-03-19T12:36:09.141Z,46.00
2023-03-19T12:38:40.704Z,46.00
2023-03-19T12:41:12.667Z,46.00
2023-03-19T12:43:50.424Z,46.00
2023-03-19T12:46:24.512Z,45.90
2023-03-19T12:48:57.511Z,45.70
2023-03-19T12:51:29.774Z,45.70
2023-03-19T12:54:01.984Z,45.80
2023-03-19T12:56:36.601Z,45.90
2023-03-19T12:59:14.969Z,45.90
2023-03-19T13:01:48.894Z,45.90
2023-03-19T13:04:22.858Z,45.90
2023-03-19T13:06:56.132Z,45.90
2023-03-19T13:09:31.498Z,45.90
2023-03-19T13:12:04.186Z,46.00
2023-03-19T13:14:39.454Z,46.00
2023-03-19T13:17:21.364Z,46.10
2023-03-19T13:19:52.733Z,46.10
2023-03-19T13:22:23.072Z,46.00
2023-03-19T13:24:53.531Z,46.00
2023-03-19T13:27:24.903Z,45.90
2023-03-19T13:30:07.432Z,45.90
2023-03-19T13:32:42.827Z,45.80
2023-03-19T13:35:30.242Z,45.80
2023-03-19T13:38:02.388Z,45.70
2023-03-19T13:40:48.034Z,46.00
2023-03-19T13:43:52.807Z,46.00
2023-03-19T13:46:39.846Z,45.90
2023-03-19T13:49:26.483Z,45.60
2023-03-19T13:52:03.193Z,45.20
2023-03-19T13:54:37.728Z,44.90
2023-03-19T13:59:39.237Z,44.00
2023-03-19T14:02:58.962Z,44.60
2023-03-19T14:05:36.290Z,44.60
2023-03-19T14:08:18.461Z,44.80
2023-03-19T14:10:50.587Z,45.00
2023-03-19T14:13:24.251Z,45.10
2023-03-19T14:15:53.210Z,45.10
2023-03-19T14:18:25.057Z,45.10
2023-03-19T14:21:00.042Z,44.90
2023-03-19T14:23:40.927Z,44.60
2023-03-19T14:26:18.550Z,44.50
2023-03-19T14:28:55.979Z,44.40
2023-03-19T14:31:36.985Z,44.40
2023-03-19T14:34:17.906Z,44.50
2023-03-19T14:36:51.193Z,44.60
2023-03-19T14:39:23.618Z,44.80
2023-03-19T14:41:56.424Z,45.00
2023-03-19T14:44:58.702Z,45.10
2023-03-19T14:47:43.051Z,45.30
2023-03-19T14:50:36.092Z,45.50
2023-03-19T14:53:14.633Z,45.70
2023-03-19T14:55:43.992Z,45.90
2023-03-19T14:58:13.064Z,46.10
2023-03-19T15:00:46.794Z,46.30
2023-03-19T15:03:22.770Z,46.40
2023-03-19T15:05:57.677Z,46.50
2023-03-19T15:08:28.352Z,46.60
2023-03-19T15:11:08.791Z,46.70
2023-03-19T15:14:00.729Z,47.40
2023-03-19T15:16:38.336Z,47.00
2023-03-19T15:19:10.314Z,47.10
2023-03-19T15:21:38.638Z,47.10
2023-03-19T15:24:15.947Z,47.20
2023-03-19T15:26:44.626Z,47.30
2023-03-19T15:29:13.632Z,47.30
2023-03-19T15:31:51.772Z,47.50
2023-03-19T15:34:27.919Z,47.60
2023-03-19T15:37:00.206Z,47.60
2023-03-19T15:39:35.288Z,48.20
2023-03-19T15:42:05.409Z,47.70
2023-03-19T15:44:38.424Z,47.80
2023-03-19T15:47:12.479Z,47.90
2023-03-19T15:49:43.740Z,47.90
2023-03-19T15:52:14.114Z,48.00
2023-03-19T15:54:44.634Z,48.20
2023-03-19T15:57:15.078Z,48.30
2023-03-19T15:59:43.601Z,48.50
2023-03-19T16:02:20.986Z,48.50
2023-03-19T16:05:14.156Z,48.70
2023-03-19T16:07:43.187Z,48.80
2023-03-19T16:10:33.876Z,48.90
2023-03-19T16:13:04.032Z,49.20
2023-03-19T16:15:38.751Z,49.00
2023-03-19T16:18:27.685Z,49.20
2023-03-19T16:21:07.170Z,49.50
2023-03-19T16:23:37.708Z,49.50
2023-03-19T16:26:18.218Z,49.60
2023-03-19T16:28:50.174Z,49.80
2023-03-19T16:31:23.552Z,49.80
2023-03-19T16:33:53.484Z,50.10
2023-03-19T16:36:22.896Z,50.10
2023-03-19T16:38:57.376Z,50.20
2023-03-19T16:41:32.244Z,50.40
2023-03-19T16:44:18.402Z,50.50
2023-03-19T16:46:46.604Z,50.70
2023-03-19T16:49:14.643Z,50.80
2023-03-19T16:51:43.081Z,51.00
2023-03-19T16:54:13.859Z,51.20
2023-03-19T16:56:43.334Z,51.40
2023-03-19T16:59:20.753Z,51.50
2023-03-19T17:01:48.867Z,51.80
2023-03-19T17:04:17.658Z,52.00
2023-03-19T17:06:45.974Z,52.20
2023-03-19T17:09:14.138Z,52.40
2023-03-19T17:11:44.906Z,52.70
2023-03-19T17:14:18.206Z,52.90
2023-03-19T17:16:50.684Z,53.10
2023-03-19T17:19:22.054Z,53.40
2023-03-19T17:21:52.759Z,53.60
2023-03-19T17:24:24.614Z,53.90
2023-03-19T17:26:55.509Z,54.10
2023-03-19T17:29:25.428Z,54.30
2023-03-19T17:31:54.853Z,54.40
2023-03-19T17:34:25.725Z,54.70
2023-03-19T17:36:56.324Z,54.90
2023-03-19T17:39:24.945Z,55.10
2023-03-19T17:41:54.870Z,55.30
2023-03-19T17:44:23.369Z,55.50
2023-03-19T17:46:53.474Z,55.60
2023-03-19T17:49:24.076Z,55.70
2023-03-19T17:51:52.733Z,55.80
2023-03-19T17:54:21.354Z,56.00
2023-03-19T17:56:49.829Z,56.20
2023-03-19T17:59:19.568Z,56.80
2023-03-19T18:01:48.182Z,56.40
2023-03-19T18:04:19.108Z,56.50
2023-03-19T18:06:50.465Z,56.70
2023-03-19T18:09:20.934Z,56.90
2023-03-19T18:11:49.370Z,57.00
2023-03-19T18:14:19.210Z,57.10
2023-03-19T18:16:48.023Z,57.40
2023-03-19T18:19:21.322Z,57.50
2023-03-19T18:21:49.407Z,57.70
2023-03-19T18:24:17.552Z,57.70
2023-03-19T18:26:45.660Z,57.90
2023-03-19T18:29:13.807Z,58.00
2023-03-19T18:31:43.977Z,58.20
2023-03-19T18:34:14.231Z,58.40
2023-03-19T18:36:42.557Z,58.50
2023-03-19T18:39:13.863Z,58.60
2023-03-19T18:41:42.596Z,58.80
2023-03-19T18:44:12.120Z,58.90
2023-03-19T18:46:43.016Z,58.90
2023-03-19T18:49:20.877Z,59.00
2023-03-19T18:52:01.680Z,59.20
2023-03-19T18:54:31.610Z,59.30
2023-03-19T18:57:01.293Z,59.30
2023-03-19T18:59:32.616Z,59.40
2023-03-19T19:02:03.209Z,59.50
2023-03-19T19:04:31.463Z,59.60
2023-03-19T19:06:59.860Z,59.70
2023-03-19T19:09:27.907Z,59.90
2023-03-19T19:11:58.073Z,60.00
2023-03-19T19:14:26.180Z,60.10
2023-03-19T19:16:57.020Z,60.20
2023-03-19T19:19:27.815Z,60.40
2023-03-19T19:21:56.023Z,60.50
2023-03-19T19:24:24.081Z,60.60
2023-03-19T19:26:54.102Z,60.80
2023-03-19T19:29:25.562Z,61.00
2023-03-19T19:31:54.601Z,61.20
2023-03-19T19:34:23.499Z,61.40
2023-03-19T19:36:55.483Z,61.50
2023-03-19T19:39:23.517Z,61.60
2023-03-19T19:41:53.066Z,61.70
2023-03-19T19:44:23.054Z,62.00
2023-03-19T19:46:53.390Z,62.20
2023-03-19T19:49:23.205Z,62.30
2023-03-19T19:51:52.763Z,62.50
2023-03-19T19:54:21.746Z,62.60
2023-03-19T19:56:49.884Z,62.70
2023-03-19T19:59:18.093Z,62.80
2023-03-19T20:01:46.179Z,62.70
2023-03-19T20:04:15.628Z,62.90
2023-03-19T20:06:43.643Z,63.00
2023-03-19T20:09:13.112Z,63.90
2023-03-19T20:11:41.198Z,63.30
2023-03-19T20:14:14.602Z,63.50
2023-03-19T20:16:43.040Z,63.70
2023-03-19T20:19:18.758Z,64.60
2023-03-19T20:21:47.100Z,64.10
2023-03-19T20:24:16.818Z,64.10
2023-03-19T20:26:45.056Z,64.30
2023-03-19T20:29:16.597Z,64.30
2023-03-19T20:31:47.307Z,64.50
2023-03-19T20:34:28.592Z,64.60
2023-03-19T20:37:04.605Z,64.80
2023-03-19T20:39:34.004Z,64.90
2023-03-19T20:42:02.051Z,65.10
2023-03-19T20:44:30.395Z,65.20
2023-03-19T20:46:59.032Z,65.40
2023-03-19T20:49:27.049Z,65.50
2023-03-19T20:51:55.109Z,65.70
2023-03-19T20:54:23.726Z,65.80
2023-03-19T20:56:53.191Z,65.90
2023-03-19T20:59:21.220Z,66.00
2023-03-19T21:01:49.303Z,66.10
2023-03-19T21:04:20.483Z,66.20
2023-03-19T21:06:53.288Z,66.40
2023-03-19T21:09:22.588Z,66.50
2023-03-19T21:11:52.844Z,66.50
2023-03-19T21:14:23.257Z,66.60
2023-03-19T21:16:51.463Z,66.60
2023-03-19T21:19:20.018Z,66.70
2023-03-19T21:21:48.349Z,66.80
2023-03-19T21:24:18.795Z,66.90
2023-03-19T21:26:47.316Z,67.00
2023-03-19T21:29:21.842Z,67.00
2023-03-19T21:31:50.156Z,67.20
2023-03-19T21:34:18.266Z,67.20
2023-03-19T21:36:46.618Z,67.30
2023-03-19T21:39:14.663Z,67.30
2023-03-19T21:41:43.045Z,67.50
2023-03-19T21:44:14.032Z,67.40
2023-03-19T21:46:46.543Z,67.60
2023-03-19T21:49:15.207Z,67.70
2023-03-19T21:51:43.827Z,67.70
2023-03-19T21:54:11.931Z,67.80
2023-03-19T21:56:41.991Z,67.90
2023-03-19T21:59:14.744Z,67.90
2023-03-19T22:01:44.206Z,68.10
2023-03-19T22:04:12.485Z,68.20
2023-03-19T22:06:41.565Z,68.20
2023-03-19T22:09:09.729Z,68.20
2023-03-19T22:11:39.305Z,68.30
2023-03-19T22:14:13.594Z,68.40
2023-03-19T22:16:44.610Z,68.50
2023-03-19T22:19:15.084Z,68.50
2023-03-19T22:21:43.247Z,68.60
2023-03-19T22:24:11.298Z,68.50
2023-03-19T22:26:41.615Z,68.80
2023-03-19T22:29:16.736Z,68.70
2023-03-19T22:31:46.610Z,68.90
2023-03-19T22:34:16.635Z,68.90
2023-03-19T22:36:45.034Z,69.10
2023-03-19T22:39:13.670Z,69.10
2023-03-19T22:41:45.564Z,69.20
2023-03-19T22:44:20.482Z,69.30
2023-03-19T22:46:49.908Z,69.40
2023-03-19T22:49:18.839Z,69.50
2023-03-19T22:51:47.429Z,69.50
2023-03-19T22:54:15.642Z,69.60
2023-03-19T22:56:43.873Z,69.60
2023-03-19T22:59:11.942Z,69.70
2023-03-19T23:01:41.910Z,69.80
2023-03-19T23:04:20.240Z,69.90
2023-03-19T23:06:48.390Z,70.00
2023-03-19T23:09:19.268Z,70.00
2023-03-19T23:11:48.265Z,70.20
2023-03-19T23:14:28.352Z,70.10
2023-03-19T23:19:30.704Z,70.40
2023-03-19T23:21:59.255Z,70.50
2023-03-19T23:24:27.939Z,70.50
2023-03-19T23:26:57.833Z,70.60
2023-03-19T23:29:29.793Z,70.80
2023-03-19T23:31:58.889Z,70.80
2023-03-19T23:34:29.486Z,70.80
2023-03-19T23:36:58.055Z,70.90
2023-03-19T23:39:26.713Z,71.00
2023-03-19T23:41:58.867Z,71.00
2023-03-19T23:44:29.188Z,71.20
2023-03-19T23:47:01.522Z,71.10
2023-03-19T23:49:32.989Z,71.30
2023-03-19T23:52:01.974Z,71.30
2023-03-19T23:54:32.169Z,71.30
2023-03-19T23:57:04.229Z,71.30
2023-03-19T23:59:36.207Z,71.50
